Rickenbacker AFB, Ohio
Current Conditions -  °F | °C
As of 5:55 PM on Friday 28 Nov 2014 (Local Time) from KLCK Reporting Station
Clear Clear  
Wind Chill: 29°   Ceiling: Unl
Heat Index: 29°   Visibility: 10mi
Dew Point: 19°   Wind: 3mph
Humidity: 68%   Direction: 140°SE
Pressure: 30.22"   Gusts: NA
Location:  39.8164°N, 82.9345°W
Report Text: KLCK 282255Z AUTO 14003KT 10SM CLR M02/M07 A3022 RMK AO2 T10171070
Loading
Personal Weather Stations






























Interactive Weather Map New forecast layout! Learn more

10-Day Weather Forecast

Advertisements
Track Severe Weather on mobile